Energy IVy — A8UO8 — position and weather

sailwx.info

Track history (hours):
 
Tides and Currents Weather Stations Pressure Air Temp Water Temp Dewpoint Dewpoint Depression Visibility Wind Speed Wind Dir Waves Ship Positions

Energy IVy

Last reported at 2015-May-04 05:23 UTC. Time now 2015-May-04 07:00 UTC.
Position N 58°21' E 011°54'.

Length 180 m; draft 10.4 m.

Type: Cargo ship. MMSI: 636091925.

Date/timePositionNaut miles runAvg speedWind from/ knotsBaromVisibWave heightAir tempDewpointWater temp
2015-May-04 05:23N 58°21' E 011°54'0 0.0
2015-May-02 04:20N 58°21' E 011°54'0 0.0
2015-May-02 03:26N 58°21' E 011°54'0 0.0
2015-May-01 23:20N 58°21' E 011°54'0 0.0
2015-Apr-30 09:17N 58°21' E 011°54'0 0.0
2015-Apr-30 06:14N 58°21' E 011°54'  
2015-Apr-26 21:11N 58°21' E 011°54'4 4.3
2015-Apr-26 20:23N 58°19' E 011°48'12 9.5
2015-Apr-26 19:07N 58°07' E 011°50'5 8.2
2015-Apr-26 18:33N 58°03' E 011°48'10 9.7
2015-Apr-26 17:33N 57°55' E 011°36'7 7.4
2015-Apr-26 16:33N 57°55' E 011°22'1 0.9
2015-Apr-26 15:32N 57°56' E 011°22'0 0.0
2015-Apr-26 14:32N 57°56' E 011°22'0 0.0
2015-Apr-26 13:29N 57°56' E 011°22'0 0.4
2015-Apr-26 12:33N 57°57' E 011°22'6 5.6
2015-Apr-26 11:33N 57°51' E 011°20'1211.5
2015-Apr-26 10:33N 57°51' E 010°58'1212.0
2015-Apr-26 09:32N 57°51' E 010°36'27510.5
2015-Apr-25 07:19N 54°21' E 005°17'810.0
2015-Apr-25 06:30N 54°16' E 005°08'1010.0
2015-Apr-25 05:30N 54°08' E 004°56'1110.0
2015-Apr-25 04:23N 53°60' E 004°43'910.0
2015-Apr-25 03:32N 53°54' E 004°34'11010.6
2015-Apr-24 17:10N 52°21' E 002°55'1710.7
2015-Apr-24 15:33N 52°06' E 002°42'1010.0
2015-Apr-24 14:33N 51°56' E 002°39'9 9.4
2015-Apr-24 13:33N 51°47' E 002°35'9 8.9
2015-Apr-24 12:33N 51°40' E 002°25'9 8.6
2015-Apr-24 11:33N 51°34' E 002°17'9 8.8
2015-Apr-24 10:33N 51°27' E 002°08'9 9.2
2015-Apr-24 09:33N 51°18' E 002°01'10 9.6
2015-Apr-24 08:33N 51°13' E 001°49'1010.1
2015-Apr-24 07:33N 51°05' E 001°39'1110.9
2015-Apr-24 06:33N 50°56' E 001°29'1111.4
2015-Apr-24 05:33N 50°45' E 001°23'  
Track history (hours):
 
Tides and Currents Weather Stations Pressure Air Temp Water Temp Dewpoint Dewpoint Depression Visibility Wind Speed Wind Dir Waves Ship Positions

Energy IVy

Last reported at 2015-May-04 05:23 UTC. Time now 2015-May-04 07:00 UTC.
Position N 58°21' E 011°54'.

Length 180 m; draft 10.4 m.

Type: Cargo ship. MMSI: 636091925.

Date/timePositionNaut miles runAvg speedWind from/ knotsBaromVisibWave heightAir tempDewpointWater temp
2015-May-04 05:23N 58°21' E 011°54'0 0.0
2015-May-02 04:20N 58°21' E 011°54'0 0.0
2015-May-02 03:26N 58°21' E 011°54'0 0.0
2015-May-01 23:20N 58°21' E 011°54'0 0.0
2015-Apr-30 09:17N 58°21' E 011°54'0 0.0
2015-Apr-30 06:14N 58°21' E 011°54'  
2015-Apr-26 21:11N 58°21' E 011°54'4 4.3
2015-Apr-26 20:23N 58°19' E 011°48'12 9.5
2015-Apr-26 19:07N 58°07' E 011°50'5 8.2
2015-Apr-26 18:33N 58°03' E 011°48'10 9.7
2015-Apr-26 17:33N 57°55' E 011°36'7 7.4
2015-Apr-26 16:33N 57°55' E 011°22'1 0.9
2015-Apr-26 15:32N 57°56' E 011°22'0 0.0
2015-Apr-26 14:32N 57°56' E 011°22'0 0.0
2015-Apr-26 13:29N 57°56' E 011°22'0 0.4
2015-Apr-26 12:33N 57°57' E 011°22'6 5.6
2015-Apr-26 11:33N 57°51' E 011°20'1211.5
2015-Apr-26 10:33N 57°51' E 010°58'1212.0
2015-Apr-26 09:32N 57°51' E 010°36'27510.5
2015-Apr-25 07:19N 54°21' E 005°17'810.0
2015-Apr-25 06:30N 54°16' E 005°08'1010.0
2015-Apr-25 05:30N 54°08' E 004°56'1110.0
2015-Apr-25 04:23N 53°60' E 004°43'910.0
2015-Apr-25 03:32N 53°54' E 004°34'11010.6
2015-Apr-24 17:10N 52°21' E 002°55'1710.7
2015-Apr-24 15:33N 52°06' E 002°42'1010.0
2015-Apr-24 14:33N 51°56' E 002°39'9 9.4
2015-Apr-24 13:33N 51°47' E 002°35'9 8.9
2015-Apr-24 12:33N 51°40' E 002°25'9 8.6
2015-Apr-24 11:33N 51°34' E 002°17'9 8.8
2015-Apr-24 10:33N 51°27' E 002°08'9 9.2
2015-Apr-24 09:33N 51°18' E 002°01'10 9.6
2015-Apr-24 08:33N 51°13' E 001°49'1010.1
2015-Apr-24 07:33N 51°05' E 001°39'1110.9
2015-Apr-24 06:33N 50°56' E 001°29'1111.4
2015-Apr-24 05:33N 50°45' E 001°23'  

Dump ship's entire track history